createdAt,value
2022-10-13T00:01:39.839Z,8.77
2022-10-13T00:04:07.974Z,8.72
2022-10-13T00:06:36.053Z,8.66
2022-10-13T00:09:04.102Z,8.70
2022-10-13T00:11:35.651Z,8.68
2022-10-13T00:14:05.359Z,8.69
2022-10-13T00:16:37.421Z,8.70
2022-10-13T00:19:05.313Z,8.67
2022-10-13T00:21:33.333Z,8.63
2022-10-13T00:24:03.322Z,8.60
2022-10-13T00:26:31.490Z,8.55
2022-10-13T00:29:00.814Z,8.50
2022-10-13T00:31:30.819Z,8.45
2022-10-13T00:34:00.332Z,8.39
2022-10-13T00:36:29.766Z,8.36
2022-10-13T00:38:58.313Z,8.32
2022-10-13T00:41:26.948Z,8.28
2022-10-13T00:43:58.640Z,8.30
2022-10-13T00:46:30.740Z,8.33
2022-10-13T00:49:01.741Z,8.34
2022-10-13T00:51:34.978Z,8.34
2022-10-13T00:54:06.994Z,8.39
2022-10-13T00:56:39.175Z,8.44
2022-10-13T00:59:12.291Z,8.47
2022-10-13T01:01:43.785Z,8.43
2022-10-13T01:04:12.243Z,8.40
2022-10-13T01:06:42.699Z,8.39
2022-10-13T01:09:16.607Z,8.38
2022-10-13T01:12:01.183Z,8.44
2022-10-13T01:14:35.194Z,8.42
2022-10-13T01:17:13.428Z,8.40
2022-10-13T01:20:09.692Z,8.43
2022-10-13T01:22:52.535Z,8.41
2022-10-13T01:25:47.827Z,8.45
2022-10-13T01:28:38.359Z,8.48
2022-10-13T01:31:16.359Z,8.48
2022-10-13T01:33:51.068Z,8.45
2022-10-13T01:36:28.670Z,8.48
2022-10-13T01:39:04.308Z,8.45
2022-10-13T01:41:37.953Z,8.45
2022-10-13T01:44:16.186Z,8.46
2022-10-13T01:46:53.697Z,8.48
2022-10-13T01:49:29.246Z,8.47
2022-10-13T01:52:02.823Z,8.45
2022-10-13T01:54:30.912Z,8.50
2022-10-13T01:57:00.782Z,8.50
2022-10-13T01:59:32.730Z,8.49
2022-10-13T02:02:14.203Z,8.52
2022-10-13T02:04:54.013Z,8.51
2022-10-13T02:07:28.956Z,8.48
2022-10-13T02:10:04.918Z,8.44
2022-10-13T02:12:41.840Z,8.41
2022-10-13T02:15:15.054Z,8.38
2022-10-13T02:20:58.886Z,8.24
2022-10-13T02:23:28.177Z,8.23
2022-10-13T02:26:00.102Z,8.20
2022-10-13T02:28:29.092Z,8.22
2022-10-13T02:30:57.617Z,8.20
2022-10-13T02:33:25.872Z,8.16
2022-10-13T02:35:53.821Z,8.11
2022-10-13T02:38:23.487Z,8.08
2022-10-13T02:40:51.620Z,8.08
2022-10-13T02:43:22.283Z,8.05
2022-10-13T02:45:50.440Z,8.06
2022-10-13T02:48:18.679Z,8.04
2022-10-13T02:50:49.053Z,7.99
2022-10-13T02:53:19.547Z,7.96
2022-10-13T02:55:51.278Z,7.93
2022-10-13T02:58:19.305Z,7.86
2022-10-13T03:00:47.482Z,7.84
2022-10-13T03:03:17.861Z,7.82
2022-10-13T03:05:50.419Z,7.83
2022-10-13T03:08:21.670Z,7.85
2022-10-13T03:10:51.488Z,7.79
2022-10-13T03:13:19.505Z,7.79
2022-10-13T03:15:48.138Z,7.78
2022-10-13T03:18:16.326Z,7.77
2022-10-13T03:20:44.286Z,7.79
2022-10-13T03:23:12.681Z,7.78
2022-10-13T03:25:41.319Z,7.80
2022-10-13T03:28:10.804Z,7.81
2022-10-13T03:30:38.787Z,7.84
2022-10-13T03:33:06.854Z,7.85
2022-10-13T03:35:34.814Z,7.86
2022-10-13T03:38:02.993Z,7.87
2022-10-13T03:40:34.319Z,7.90
2022-10-13T03:43:05.436Z,7.94
2022-10-13T03:45:34.716Z,7.94
2022-10-13T03:48:02.856Z,7.94
2022-10-13T03:50:33.007Z,7.98
2022-10-13T03:53:01.445Z,8.02
2022-10-13T03:55:29.428Z,8.07
2022-10-13T03:57:57.857Z,8.13
2022-10-13T04:00:25.758Z,8.18
2022-10-13T04:02:55.183Z,8.22
2022-10-13T04:05:23.350Z,8.24
2022-10-13T04:07:51.253Z,8.27
2022-10-13T04:10:26.387Z,8.27
2022-10-13T04:12:54.314Z,8.27
2022-10-13T04:15:22.524Z,8.27
2022-10-13T04:17:50.979Z,8.27
2022-10-13T04:20:20.568Z,8.29
2022-10-13T04:22:48.933Z,8.32
2022-10-13T04:25:17.515Z,8.37
2022-10-13T04:27:48.107Z,8.40
2022-10-13T04:30:16.458Z,8.40
2022-10-13T04:32:44.586Z,8.42
2022-10-13T04:35:12.784Z,8.42
2022-10-13T04:37:45.129Z,8.47
2022-10-13T04:40:15.622Z,8.49
2022-10-13T04:42:46.258Z,8.48
2022-10-13T04:45:14.557Z,8.53
2022-10-13T04:47:44.322Z,8.56
2022-10-13T04:50:12.611Z,8.55
2022-10-13T04:52:42.578Z,8.57
2022-10-13T04:55:12.381Z,8.59
2022-10-13T04:57:40.542Z,8.60
2022-10-13T05:00:09.648Z,8.61
2022-10-13T05:02:38.504Z,8.57
2022-10-13T05:05:07.503Z,8.54
2022-10-13T05:07:38.419Z,8.51
2022-10-13T05:10:08.917Z,8.46
2022-10-13T05:12:39.662Z,8.38
2022-10-13T05:15:09.135Z,8.30
2022-10-13T05:17:37.070Z,8.29
2022-10-13T05:20:10.883Z,8.26
2022-10-13T05:22:38.861Z,8.26
2022-10-13T05:25:08.976Z,8.22
2022-10-13T05:27:37.001Z,8.22
2022-10-13T05:30:08.613Z,8.26
2022-10-13T05:32:38.978Z,8.26
2022-10-13T05:35:10.095Z,8.29
2022-10-13T05:37:41.570Z,8.33
2022-10-13T05:40:12.288Z,8.37
2022-10-13T05:42:40.425Z,8.40
2022-10-13T05:45:12.758Z,8.45
2022-10-13T05:47:40.668Z,8.50
2022-10-13T05:50:09.679Z,8.54
2022-10-13T05:52:42.140Z,8.56
2022-10-13T05:55:14.499Z,8.60
2022-10-13T05:57:49.434Z,8.62
2022-10-13T06:00:19.486Z,8.65
2022-10-13T06:02:53.565Z,8.71
2022-10-13T06:05:25.336Z,8.73
2022-10-13T06:07:55.650Z,8.73
2022-10-13T06:10:25.354Z,8.75
2022-10-13T06:12:53.504Z,8.81
2022-10-13T06:15:25.660Z,8.83
2022-10-13T06:17:57.370Z,8.83
2022-10-13T06:20:27.511Z,8.92
2022-10-13T06:22:55.932Z,8.96
2022-10-13T06:25:25.686Z,8.96
2022-10-13T06:27:53.838Z,8.97
2022-10-13T06:30:21.933Z,9.03
2022-10-13T06:32:49.896Z,9.07
2022-10-13T06:35:18.377Z,9.08
2022-10-13T06:37:48.616Z,9.06
2022-10-13T06:40:19.330Z,9.09
2022-10-13T06:42:52.044Z,9.15
2022-10-13T06:45:23.786Z,9.15
2022-10-13T06:47:54.870Z,9.18
2022-10-13T06:50:23.825Z,9.21
2022-10-13T06:52:56.693Z,9.26
2022-10-13T06:55:25.155Z,9.36
2022-10-13T06:57:56.951Z,9.31
2022-10-13T07:00:27.271Z,9.32
2022-10-13T07:02:55.729Z,9.45
2022-10-13T07:05:24.114Z,9.54
2022-10-13T07:07:53.287Z,9.67
2022-10-13T07:10:21.861Z,9.54
2022-10-13T07:12:49.953Z,9.62
2022-10-13T07:15:19.496Z,9.73
2022-10-13T07:17:51.879Z,9.74
2022-10-13T07:21:59.028Z,9.79
2022-10-13T07:24:29.500Z,9.79
2022-10-13T07:26:57.551Z,9.91
2022-10-13T07:29:26.361Z,9.98
2022-10-13T07:31:54.435Z,10.09
2022-10-13T07:34:24.872Z,10.15
2022-10-13T07:36:52.971Z,10.22
2022-10-13T07:39:26.818Z,10.23
2022-10-13T07:41:54.871Z,10.34
2022-10-13T07:44:22.761Z,10.54
2022-10-13T07:46:50.863Z,10.67
2022-10-13T07:49:19.107Z,10.96
2022-10-13T07:51:49.864Z,11.08
2022-10-13T07:54:23.751Z,11.11
2022-10-13T07:56:57.193Z,11.12
2022-10-13T07:59:25.867Z,10.98
2022-10-13T08:01:54.259Z,10.96
2022-10-13T08:04:22.222Z,10.89
2022-10-13T08:06:50.167Z,11.04
2022-10-13T08:09:18.436Z,10.94
2022-10-13T08:11:46.404Z,10.96
2022-10-13T08:14:15.984Z,10.95
2022-10-13T08:16:48.593Z,11.16
2022-10-13T08:19:22.259Z,11.25
2022-10-13T08:21:58.059Z,11.34
2022-10-13T08:24:26.999Z,11.35
2022-10-13T08:26:57.308Z,10.98
2022-10-13T08:29:29.411Z,10.95
2022-10-13T08:31:57.305Z,10.95
2022-10-13T08:34:26.224Z,10.96
2022-10-13T08:36:57.705Z,10.67
2022-10-13T08:39:26.313Z,10.90
2022-10-13T08:41:57.370Z,10.90
2022-10-13T08:47:31.196Z,10.79
2022-10-13T08:50:04.764Z,10.82
2022-10-13T08:52:48.412Z,10.84
2022-10-13T08:55:26.993Z,10.82
2022-10-13T08:57:55.185Z,10.84
2022-10-13T09:00:31.448Z,10.86
2022-10-13T09:03:10.356Z,10.92
2022-10-13T09:05:48.044Z,10.91
2022-10-13T09:08:20.769Z,11.08
2022-10-13T09:10:51.288Z,11.13
2022-10-13T09:13:20.709Z,11.14
2022-10-13T09:15:51.313Z,11.25
2022-10-13T09:18:19.970Z,11.34
2022-10-13T09:20:47.942Z,11.28
2022-10-13T09:23:20.604Z,11.33
2022-10-13T09:25:56.098Z,11.45
2022-10-13T09:28:27.216Z,11.36
2022-10-13T09:31:07.250Z,11.53
2022-10-13T09:33:40.959Z,11.51
2022-10-13T09:36:14.225Z,11.62
2022-10-13T09:38:45.875Z,11.47
2022-10-13T09:41:20.772Z,11.51
2022-10-13T09:44:00.908Z,11.59
2022-10-13T09:46:33.828Z,11.52
2022-10-13T09:49:05.477Z,11.44
2022-10-13T09:51:39.828Z,11.34
2022-10-13T09:54:29.013Z,11.28
2022-10-13T09:57:04.114Z,11.20
2022-10-13T09:59:34.890Z,11.03
2022-10-13T10:02:20.353Z,10.94
2022-10-13T10:04:54.228Z,10.88
2022-10-13T10:07:26.898Z,10.92
2022-10-13T10:10:04.904Z,10.84
2022-10-13T10:12:37.033Z,10.86
2022-10-13T10:15:20.608Z,10.82
2022-10-13T10:17:58.693Z,10.81
2022-10-13T10:20:46.215Z,10.98
2022-10-13T10:23:20.320Z,11.01
2022-10-13T10:25:53.957Z,10.96
2022-10-13T10:28:40.711Z,10.80
2022-10-13T10:31:21.734Z,10.82
2022-10-13T10:34:03.381Z,10.85
2022-10-13T10:36:42.178Z,10.73
2022-10-13T10:39:22.833Z,10.80
2022-10-13T10:42:01.908Z,10.82
2022-10-13T10:44:34.311Z,10.82
2022-10-13T10:47:06.924Z,10.72
2022-10-13T10:49:39.426Z,10.85
2022-10-13T10:52:17.457Z,10.99
2022-10-13T10:55:04.780Z,11.02
2022-10-13T10:57:41.967Z,11.26
2022-10-13T11:00:16.464Z,11.37
2022-10-13T11:02:53.375Z,11.66
2022-10-13T11:05:23.088Z,11.68
2022-10-13T11:07:59.878Z,12.31
2022-10-13T11:10:29.679Z,12.61
2022-10-13T11:13:19.811Z,13.33
2022-10-13T11:15:48.024Z,13.99
2022-10-13T11:18:49.021Z,13.97
2022-10-13T11:21:18.538Z,14.41
2022-10-13T11:23:48.622Z,14.14
2022-10-13T11:26:31.445Z,13.74
2022-10-13T11:29:00.687Z,13.76
2022-10-13T11:31:35.157Z,13.30
2022-10-13T11:34:04.806Z,13.34
2022-10-13T11:36:46.861Z,13.41
2022-10-13T11:39:47.672Z,13.60
2022-10-13T11:42:47.672Z,13.90
2022-10-13T11:45:28.940Z,13.87
2022-10-13T11:48:22.187Z,13.55
2022-10-13T11:51:01.124Z,13.53
2022-10-13T11:53:42.849Z,13.71
2022-10-13T11:56:20.972Z,13.67
2022-10-13T11:58:49.179Z,13.90
2022-10-13T12:01:19.060Z,13.74
2022-10-13T12:03:49.415Z,13.74
2022-10-13T12:06:33.217Z,14.13
2022-10-13T12:09:06.753Z,14.38
2022-10-13T12:11:37.341Z,14.43
2022-10-13T12:14:20.339Z,14.38
2022-10-13T12:23:00.222Z,14.33
2022-10-13T12:25:30.975Z,14.19
2022-10-13T12:28:01.644Z,14.51
2022-10-13T12:30:35.797Z,14.60
2022-10-13T12:33:05.871Z,14.71
2022-10-13T12:35:34.799Z,15.03
2022-10-13T12:38:08.712Z,14.66
2022-10-13T12:40:37.495Z,14.85
2022-10-13T12:43:06.247Z,14.73
2022-10-13T12:45:36.314Z,14.63
2022-10-13T12:48:04.307Z,14.78
2022-10-13T12:50:42.205Z,14.76
2022-10-13T12:53:16.641Z,14.49
2022-10-13T12:55:59.005Z,14.55
2022-10-13T12:58:30.456Z,14.57
2022-10-13T13:01:11.003Z,14.68
2022-10-13T13:03:40.239Z,14.87
2022-10-13T13:06:11.876Z,14.86
2022-10-13T13:08:43.181Z,14.74
2022-10-13T13:11:22.777Z,14.67
2022-10-13T13:13:52.627Z,14.64
2022-10-13T13:16:23.405Z,14.64
2022-10-13T13:18:54.007Z,14.78
2022-10-13T13:21:22.104Z,14.73
2022-10-13T13:23:54.278Z,14.64
2022-10-13T13:26:25.016Z,14.44
2022-10-13T13:28:55.530Z,14.34
2022-10-13T13:31:27.161Z,14.36
2022-10-13T13:33:55.303Z,14.32
2022-10-13T13:36:25.007Z,14.43
2022-10-13T13:38:56.944Z,14.62
2022-10-13T13:41:27.695Z,14.74
2022-10-13T13:43:55.750Z,15.06
2022-10-13T13:46:27.666Z,15.20
2022-10-13T13:48:55.600Z,15.19
2022-10-13T13:51:23.701Z,14.98
2022-10-13T13:53:51.904Z,14.90
2022-10-13T13:56:24.425Z,14.82
2022-10-13T13:58:52.623Z,14.65
2022-10-13T14:01:23.630Z,14.40
2022-10-13T14:03:51.932Z,14.36
2022-10-13T14:06:21.353Z,14.31
2022-10-13T14:08:50.376Z,14.23
2022-10-13T14:11:19.065Z,14.18
2022-10-13T14:13:48.343Z,14.29
2022-10-13T14:16:25.510Z,14.47
2022-10-13T14:18:57.599Z,14.47
2022-10-13T14:21:30.062Z,14.38
2022-10-13T14:23:58.137Z,14.52
2022-10-13T14:26:26.153Z,14.58
2022-10-13T14:28:55.801Z,14.57
2022-10-13T14:31:23.860Z,14.53
2022-10-13T14:33:54.245Z,14.51
2022-10-13T14:36:25.455Z,14.42
2022-10-13T14:38:54.841Z,14.38
2022-10-13T14:41:24.822Z,14.31
2022-10-13T14:43:55.577Z,14.31
2022-10-13T14:46:24.941Z,14.30
2022-10-13T14:48:56.659Z,14.31
2022-10-13T14:51:26.688Z,14.30
2022-10-13T14:53:54.783Z,14.27
2022-10-13T14:56:24.671Z,14.31
2022-10-13T14:58:57.337Z,14.29
2022-10-13T15:01:30.533Z,14.26
2022-10-13T15:03:58.655Z,14.23
2022-10-13T15:06:28.045Z,14.20
2022-10-13T15:08:56.495Z,14.22
2022-10-13T15:11:27.847Z,14.16
2022-10-13T15:13:57.245Z,14.13
2022-10-13T15:16:28.002Z,14.08
2022-10-13T15:18:56.582Z,14.12
2022-10-13T15:21:25.109Z,14.08
2022-10-13T15:23:53.269Z,14.13
2022-10-13T15:26:21.759Z,14.05
2022-10-13T15:28:51.722Z,14.02
2022-10-13T15:31:22.858Z,13.99
2022-10-13T15:33:52.580Z,13.99
2022-10-13T15:36:25.273Z,13.99
2022-10-13T15:38:53.434Z,13.97
2022-10-13T15:41:23.064Z,13.88
2022-10-13T15:43:53.708Z,13.78
2022-10-13T15:46:24.104Z,13.74
2022-10-13T15:48:53.319Z,13.56
2022-10-13T15:51:24.185Z,13.59
2022-10-13T15:53:52.427Z,13.56
2022-10-13T15:56:20.615Z,13.53
2022-10-13T15:58:50.810Z,13.41
2022-10-13T16:01:18.867Z,13.30
2022-10-13T16:03:48.144Z,13.19
2022-10-13T16:06:16.266Z,13.06
2022-10-13T16:08:44.668Z,12.97
2022-10-13T16:11:14.980Z,12.90
2022-10-13T16:13:46.086Z,12.86
2022-10-13T16:16:14.719Z,12.87
2022-10-13T16:18:43.778Z,12.84
2022-10-13T16:21:18.608Z,12.82
2022-10-13T16:23:49.750Z,12.80
2022-10-13T16:26:18.358Z,12.79
2022-10-13T16:28:46.733Z,12.78
2022-10-13T16:31:16.383Z,12.75
2022-10-13T16:33:46.047Z,12.73
2022-10-13T16:36:17.930Z,12.72
2022-10-13T16:38:47.639Z,12.70
2022-10-13T16:41:18.103Z,12.69
2022-10-13T16:43:49.700Z,12.65
2022-10-13T16:46:19.326Z,12.61
2022-10-13T16:48:49.763Z,12.54
2022-10-13T16:51:21.246Z,12.56
2022-10-13T16:53:50.272Z,12.51
2022-10-13T16:56:22.124Z,12.43
2022-10-13T16:58:50.673Z,12.50
2022-10-13T17:01:18.872Z,12.45
2022-10-13T17:03:47.950Z,12.47
2022-10-13T17:06:16.977Z,12.43
2022-10-13T17:08:47.245Z,12.42
2022-10-13T17:11:17.882Z,12.40
2022-10-13T17:13:48.218Z,12.41
2022-10-13T17:16:19.428Z,12.42
2022-10-13T17:18:47.946Z,12.38
2022-10-13T17:24:01.377Z,12.26
2022-10-13T17:26:29.483Z,12.26
2022-10-13T17:28:57.509Z,12.29
2022-10-13T17:31:26.073Z,12.31
2022-10-13T17:33:54.667Z,12.27
2022-10-13T17:36:24.990Z,12.31
2022-10-13T17:38:55.154Z,12.31
2022-10-13T17:41:25.372Z,12.34
2022-10-13T17:43:53.865Z,12.34
2022-10-13T17:46:36.368Z,12.32
2022-10-13T17:49:06.839Z,12.33
2022-10-13T17:51:35.522Z,12.33
2022-10-13T17:54:03.825Z,12.30
2022-10-13T17:56:35.831Z,12.30
2022-10-13T17:59:05.947Z,12.33
2022-10-13T18:01:35.855Z,12.32
2022-10-13T18:04:06.124Z,12.32
2022-10-13T18:19:58.677Z,12.32
2022-10-13T18:22:30.032Z,12.32
2022-10-13T18:25:00.313Z,12.31
2022-10-13T18:27:28.425Z,12.31
2022-10-13T18:29:56.426Z,12.31
2022-10-13T18:32:24.502Z,12.33
2022-10-13T18:34:56.206Z,12.33
2022-10-13T18:37:25.888Z,12.33
2022-10-13T18:39:54.073Z,12.27
2022-10-13T18:42:22.426Z,12.30
2022-10-13T18:44:50.512Z,12.32
2022-10-13T18:47:19.292Z,12.31
2022-10-13T18:49:47.411Z,12.31
2022-10-13T18:52:16.353Z,12.30
2022-10-13T18:54:50.667Z,12.33
2022-10-13T18:57:19.662Z,12.33
2022-10-13T18:59:48.836Z,12.34
2022-10-13T19:02:17.404Z,12.36
2022-10-13T19:04:45.328Z,12.37
2022-10-13T19:07:13.668Z,12.39
2022-10-13T19:09:41.720Z,12.40
2022-10-13T19:12:11.658Z,12.42
2022-10-13T19:14:39.638Z,12.42
2022-10-13T19:17:12.232Z,12.43
2022-10-13T19:19:41.392Z,12.44
2022-10-13T19:22:10.111Z,12.32
2022-10-13T19:24:38.144Z,12.41
2022-10-13T19:27:06.458Z,12.38
2022-10-13T19:29:36.814Z,12.35
2022-10-13T19:32:07.779Z,12.34
2022-10-13T19:34:35.998Z,12.33
2022-10-13T19:37:06.687Z,12.32
2022-10-13T19:39:34.787Z,12.33
2022-10-13T19:42:03.088Z,12.34
2022-10-13T19:44:31.522Z,12.35
2022-10-13T19:47:00.826Z,12.34
2022-10-13T19:49:31.445Z,12.34
2022-10-13T19:51:59.518Z,12.35
2022-10-13T19:54:33.747Z,12.38
2022-10-13T19:57:02.099Z,12.39
2022-10-13T19:59:30.219Z,12.38
2022-10-13T20:01:58.345Z,12.37
2022-10-13T20:04:27.919Z,12.38
2022-10-13T20:06:55.943Z,12.35
2022-10-13T20:09:24.168Z,12.34
2022-10-13T20:11:52.694Z,12.35
2022-10-13T20:14:21.059Z,12.35
2022-10-13T20:16:49.701Z,12.37
2022-10-13T20:19:19.673Z,12.34
2022-10-13T20:21:51.691Z,12.34
2022-10-13T20:24:20.836Z,12.33
2022-10-13T20:26:48.834Z,12.30
2022-10-13T20:29:19.025Z,12.28
2022-10-13T20:31:49.965Z,12.26
2022-10-13T20:34:17.963Z,12.25
2022-10-13T20:36:45.879Z,12.24
2022-10-13T20:39:15.325Z,12.19
2022-10-13T20:41:43.675Z,12.21
2022-10-13T20:44:12.586Z,12.21
2022-10-13T20:46:40.426Z,12.18
2022-10-13T20:49:11.888Z,12.15
2022-10-13T20:51:43.973Z,12.12
2022-10-13T20:54:13.520Z,12.09
2022-10-13T20:56:43.826Z,12.07
2022-10-13T20:59:14.448Z,12.05
2022-10-13T21:01:42.725Z,12.03
2022-10-13T21:04:11.186Z,12.02
2022-10-13T21:06:43.911Z,11.99
2022-10-13T21:09:11.846Z,11.96
2022-10-13T21:11:44.431Z,11.95
2022-10-13T21:14:12.403Z,11.93
2022-10-13T21:16:41.152Z,11.91
2022-10-13T21:19:12.366Z,11.88
2022-10-13T21:21:40.419Z,11.84
2022-10-13T21:24:09.404Z,11.85
2022-10-13T21:26:38.325Z,11.84
2022-10-13T21:29:07.830Z,11.86
2022-10-13T21:31:36.888Z,11.86
2022-10-13T21:34:05.188Z,11.86
2022-10-13T21:36:34.441Z,11.85
2022-10-13T21:39:04.271Z,11.81
2022-10-13T21:41:33.848Z,11.90
2022-10-13T21:44:01.735Z,11.90
2022-10-13T21:46:34.842Z,11.90
2022-10-13T21:49:06.809Z,11.92
2022-10-13T21:51:37.470Z,11.92
2022-10-13T21:54:08.485Z,11.93
2022-10-13T21:56:38.065Z,11.93
2022-10-13T21:59:06.375Z,11.93
2022-10-13T22:01:35.861Z,11.93
2022-10-13T22:04:13.149Z,11.92
2022-10-13T22:06:44.542Z,11.88
2022-10-13T22:09:13.102Z,11.88
2022-10-13T22:11:41.318Z,11.90
2022-10-13T22:14:15.256Z,11.86
2022-10-13T22:16:49.379Z,11.86
2022-10-13T22:19:19.012Z,11.85
2022-10-13T22:21:48.921Z,11.86
2022-10-13T22:24:18.488Z,11.84
2022-10-13T22:26:49.158Z,11.84
2022-10-13T22:29:19.429Z,11.84
2022-10-13T22:31:52.794Z,11.85
2022-10-13T22:34:21.308Z,11.85
2022-10-13T22:36:49.488Z,11.83
2022-10-13T22:39:17.750Z,11.82
2022-10-13T22:41:47.931Z,11.83
2022-10-13T22:44:15.950Z,11.81
2022-10-13T22:46:44.061Z,11.80
2022-10-13T22:49:16.554Z,11.80
2022-10-13T22:51:46.864Z,11.78
2022-10-13T22:54:14.870Z,11.78
2022-10-13T22:56:43.241Z,11.74
2022-10-13T22:59:12.935Z,11.72
2022-10-13T23:01:41.141Z,11.69
2022-10-13T23:04:11.636Z,11.71
2022-10-13T23:06:43.173Z,11.71
2022-10-13T23:09:13.739Z,11.70
2022-10-13T23:13:22.722Z,11.59
2022-10-13T23:15:51.709Z,11.59
2022-10-13T23:18:19.614Z,11.61
2022-10-13T23:20:47.506Z,11.60
2022-10-13T23:23:16.184Z,11.59
2022-10-13T23:25:44.030Z,11.61
2022-10-13T23:28:14.533Z,11.60
2022-10-13T23:30:44.081Z,11.62
2022-10-13T23:33:12.086Z,11.61
2022-10-13T23:35:40.906Z,11.61
2022-10-13T23:38:10.177Z,11.61
2022-10-13T23:40:38.075Z,11.60
2022-10-13T23:43:05.974Z,11.60
2022-10-13T23:45:33.969Z,11.60
2022-10-13T23:48:03.605Z,11.58
2022-10-13T23:50:35.191Z,11.58
2022-10-13T23:53:05.122Z,11.55
2022-10-13T23:55:33.156Z,11.55
2022-10-13T23:58:03.659Z,11.53
